createdAt,value
2018-04-11T00:01:35.602Z,13.10
2018-04-11T00:04:03.967Z,12.90
2018-04-11T00:06:32.335Z,12.90
2018-04-11T00:08:59.972Z,12.90
2018-04-11T00:11:28.494Z,12.80
2018-04-11T00:13:56.093Z,12.70
2018-04-11T00:16:23.700Z,12.70
2018-04-11T00:18:51.299Z,12.60
2018-04-11T00:21:19.752Z,12.50
2018-04-11T00:23:47.383Z,12.50
2018-04-11T00:26:15.032Z,12.50
2018-04-11T00:28:43.558Z,12.50
2018-04-11T00:31:11.189Z,12.50
2018-04-11T00:33:38.784Z,12.50
2018-04-11T00:36:06.370Z,12.60
2018-04-11T00:38:34.010Z,12.60
2018-04-11T00:41:01.624Z,12.60
2018-04-11T00:43:29.235Z,12.60
2018-04-11T00:45:56.864Z,12.60
2018-04-11T00:48:24.479Z,12.70
2018-04-11T00:50:52.831Z,12.70
2018-04-11T00:53:26.361Z,12.70
2018-04-11T00:55:54.033Z,12.70
2018-04-11T00:58:21.666Z,12.80
2018-04-11T01:00:50.100Z,12.80
2018-04-11T01:03:18.718Z,12.80
2018-04-11T01:05:46.604Z,12.90
2018-04-11T01:08:14.954Z,12.90
2018-04-11T01:10:42.597Z,12.80
2018-04-11T01:13:10.224Z,12.90
2018-04-11T01:15:37.840Z,12.90
2018-04-11T01:18:05.471Z,12.90
2018-04-11T01:20:33.157Z,12.90
2018-04-11T01:23:00.737Z,12.90
2018-04-11T01:25:28.341Z,12.80
2018-04-11T01:27:56.693Z,12.80
2018-04-11T01:30:24.285Z,12.80
2018-04-11T01:32:52.633Z,12.70
2018-04-11T01:35:20.279Z,12.70
2018-04-11T01:37:47.922Z,12.60
2018-04-11T01:40:15.505Z,12.70
2018-04-11T01:42:43.175Z,12.60
2018-04-11T01:45:10.861Z,12.60
2018-04-11T01:47:38.483Z,12.60
2018-04-11T01:50:06.068Z,12.60
2018-04-11T01:52:33.726Z,12.60
2018-04-11T01:55:02.071Z,12.50
2018-04-11T01:57:29.717Z,12.50
2018-04-11T01:59:57.316Z,12.50
2018-04-11T02:02:27.266Z,12.40
2018-04-11T02:04:54.876Z,12.40
2018-04-11T02:07:22.478Z,12.30
2018-04-11T02:09:50.119Z,12.30
2018-04-11T02:12:17.712Z,12.30
2018-04-11T02:14:45.334Z,12.30
2018-04-11T02:17:12.925Z,12.30
2018-04-11T02:19:41.311Z,12.10
2018-04-11T02:22:09.697Z,12.10
2018-04-11T02:24:38.050Z,12.10
2018-04-11T02:27:05.711Z,12.10
2018-04-11T02:29:34.122Z,12.00
2018-04-11T02:32:02.615Z,12.00
2018-04-11T02:34:30.286Z,12.00
2018-04-11T02:36:58.681Z,11.90
2018-04-11T02:39:26.282Z,11.90
2018-04-11T02:41:53.918Z,11.90
2018-04-11T02:44:21.502Z,12.00
2018-04-11T02:46:49.094Z,12.00
2018-04-11T02:49:16.707Z,12.00
2018-04-11T02:51:44.287Z,11.90
2018-04-11T02:54:11.865Z,11.90
2018-04-11T02:56:39.473Z,11.90
2018-04-11T02:59:07.831Z,11.90
2018-04-11T03:01:35.419Z,11.90
2018-04-11T03:04:03.765Z,12.00
2018-04-11T03:06:31.452Z,12.00
2018-04-11T03:08:59.103Z,12.00
2018-04-11T03:11:26.736Z,12.10
2018-04-11T03:13:54.351Z,12.10
2018-04-11T03:16:21.985Z,12.10
2018-04-11T03:18:50.343Z,12.20
2018-04-11T03:21:18.020Z,12.10
2018-04-11T03:23:45.592Z,12.20
2018-04-11T03:26:13.212Z,12.20
2018-04-11T03:28:40.829Z,12.30
2018-04-11T03:31:08.484Z,12.30
2018-04-11T03:33:36.082Z,12.40
2018-04-11T03:36:03.656Z,12.40
2018-04-11T03:38:31.228Z,12.40
2018-04-11T03:40:58.842Z,12.40
2018-04-11T03:43:26.428Z,12.40
2018-04-11T03:45:54.070Z,12.40
2018-04-11T03:48:21.685Z,12.40
2018-04-11T03:50:49.336Z,12.40
2018-04-11T03:53:16.932Z,12.40
2018-04-11T03:55:44.579Z,12.40
2018-04-11T03:58:12.162Z,12.40
2018-04-11T04:00:39.738Z,12.40
2018-04-11T04:03:08.129Z,12.30
2018-04-11T04:05:36.471Z,12.30
2018-04-11T04:08:04.085Z,12.40
2018-04-11T04:10:32.411Z,12.30
2018-04-11T04:13:00.024Z,12.30
2018-04-11T04:15:40.430Z,12.30
2018-04-11T04:18:19.934Z,12.30
2018-04-11T04:20:47.582Z,12.40
2018-04-11T04:23:15.156Z,12.40
2018-04-11T04:25:43.520Z,12.50
2018-04-11T04:28:11.123Z,12.50
2018-04-11T04:30:39.434Z,12.50
2018-04-11T04:33:07.046Z,12.60
2018-04-11T04:35:35.460Z,12.60
2018-04-11T04:38:03.838Z,12.60
2018-04-11T04:40:31.500Z,12.60
2018-04-11T04:42:59.112Z,12.60
2018-04-11T04:45:26.723Z,12.60
2018-04-11T04:47:54.312Z,12.70
2018-04-11T04:50:22.652Z,12.70
2018-04-11T04:52:51.032Z,12.70
2018-04-11T04:55:19.429Z,12.70
2018-04-11T04:57:47.789Z,12.70
2018-04-11T05:00:15.415Z,12.70
2018-04-11T05:02:43.014Z,12.70
2018-04-11T05:05:10.759Z,12.70
2018-04-11T05:07:38.848Z,12.70
2018-04-11T05:10:06.483Z,12.70
2018-04-11T05:12:34.080Z,12.60
2018-04-11T05:15:01.715Z,12.70
2018-04-11T05:17:29.301Z,12.70
2018-04-11T05:19:56.907Z,12.70
2018-04-11T05:22:25.333Z,12.70
2018-04-11T05:24:53.715Z,12.60
2018-04-11T05:27:21.355Z,12.60
2018-04-11T05:29:48.949Z,12.60
2018-04-11T05:32:16.581Z,12.60
2018-04-11T05:34:44.997Z,12.60
2018-04-11T05:37:12.619Z,12.60
2018-04-11T05:39:41.010Z,12.60
2018-04-11T05:42:09.561Z,12.50
2018-04-11T05:44:37.807Z,12.50
2018-04-11T05:47:05.430Z,12.50
2018-04-11T05:49:33.837Z,12.40
2018-04-11T05:52:01.447Z,12.40
2018-04-11T05:54:29.096Z,12.40
2018-04-11T05:56:56.800Z,12.40
2018-04-11T05:59:24.448Z,12.50
2018-04-11T06:01:52.735Z,12.60
2018-04-11T06:04:20.390Z,12.50
2018-04-11T06:06:48.014Z,12.50
2018-04-11T06:09:16.390Z,12.40
2018-04-11T06:11:44.779Z,12.40
2018-04-11T06:14:12.444Z,12.40
2018-04-11T06:16:40.788Z,12.50
2018-04-11T06:19:08.392Z,12.40
2018-04-11T06:21:36.022Z,12.40
2018-04-11T06:24:03.657Z,12.40
2018-04-11T06:26:31.303Z,12.50
2018-04-11T06:28:58.901Z,12.60
2018-04-11T06:31:26.486Z,12.70
2018-04-11T06:33:54.879Z,12.90
2018-04-11T06:36:22.939Z,12.90
2018-04-11T06:38:50.548Z,12.90
2018-04-11T06:41:18.137Z,12.90
2018-04-11T06:43:45.725Z,12.80
2018-04-11T06:46:13.418Z,12.90
2018-04-11T06:48:41.057Z,12.90
2018-04-11T06:51:08.680Z,12.80
2018-04-11T06:53:36.279Z,12.70
2018-04-11T06:56:03.899Z,12.60
2018-04-11T06:58:32.288Z,12.60
2018-04-11T07:00:59.907Z,12.60
2018-04-11T07:03:27.500Z,12.70
2018-04-11T07:05:55.102Z,12.70
2018-04-11T07:08:22.708Z,12.70
2018-04-11T07:10:50.310Z,12.60
2018-04-11T07:13:18.687Z,12.40
2018-04-11T07:15:48.018Z,12.40
2018-04-11T07:18:15.637Z,12.40
2018-04-11T07:20:43.285Z,12.40
2018-04-11T07:23:11.555Z,12.30
2018-04-11T07:25:39.959Z,12.20
2018-04-11T07:28:07.561Z,12.10
2018-04-11T07:30:35.151Z,12.10
2018-04-11T07:33:02.781Z,12.20
2018-04-11T07:35:31.224Z,12.20
2018-04-11T07:37:58.832Z,12.20
2018-04-11T07:40:27.307Z,12.10
2018-04-11T07:42:54.892Z,12.10
2018-04-11T07:45:23.266Z,12.10
2018-04-11T07:47:50.895Z,12.10
2018-04-11T07:50:18.512Z,12.00
2018-04-11T07:52:46.159Z,12.00
2018-04-11T07:55:14.566Z,12.00
2018-04-11T07:57:42.139Z,12.00
2018-04-11T08:00:09.724Z,12.00
2018-04-11T08:02:37.377Z,12.00
2018-04-11T08:05:05.015Z,11.90
2018-04-11T08:07:33.445Z,12.00
2018-04-11T08:10:01.073Z,12.00
2018-04-11T08:12:29.442Z,12.00
2018-04-11T08:14:57.063Z,12.00
2018-04-11T08:17:24.738Z,12.00
2018-04-11T08:19:52.438Z,11.90
2018-04-11T08:22:20.851Z,11.90
2018-04-11T08:24:48.443Z,11.90
2018-04-11T08:27:16.145Z,12.00
2018-04-11T08:29:43.808Z,12.00
2018-04-11T08:32:11.477Z,12.10
2018-04-11T08:34:39.161Z,12.00
2018-04-11T08:37:07.610Z,12.00
2018-04-11T08:39:35.308Z,12.00
2018-04-11T08:42:03.010Z,11.90
2018-04-11T08:44:30.690Z,12.00
2018-04-11T08:46:58.342Z,11.90
2018-04-11T08:49:26.055Z,11.90
2018-04-11T08:51:53.690Z,12.00
2018-04-11T08:54:22.080Z,11.90
2018-04-11T08:56:49.747Z,11.80
2018-04-11T08:59:17.387Z,11.90
2018-04-11T09:01:44.972Z,11.90
2018-04-11T09:04:12.651Z,11.90
2018-04-11T09:06:40.277Z,11.80
2018-04-11T09:09:07.905Z,11.80
2018-04-11T09:11:35.538Z,11.90
2018-04-11T09:14:03.161Z,11.90
2018-04-11T09:16:31.513Z,12.20
2018-04-11T09:18:59.141Z,12.20
2018-04-11T09:21:26.798Z,12.30
2018-04-11T09:23:54.502Z,12.30
2018-04-11T09:26:22.192Z,12.20
2018-04-11T09:28:50.580Z,12.30
2018-04-11T09:31:18.213Z,12.30
2018-04-11T09:33:45.800Z,12.40
2018-04-11T09:36:13.424Z,12.40
2018-04-11T09:38:41.034Z,12.40
2018-04-11T09:41:08.649Z,12.40
2018-04-11T09:43:36.285Z,12.30
2018-04-11T09:46:04.737Z,12.30
2018-04-11T09:48:32.389Z,12.30
2018-04-11T09:50:59.993Z,12.30
2018-04-11T09:53:27.608Z,12.50
2018-04-11T09:55:55.279Z,12.70
2018-04-11T09:58:23.048Z,12.60
2018-04-11T10:00:53.553Z,12.60
2018-04-11T10:03:23.251Z,12.70
2018-04-11T10:05:51.636Z,13.00
2018-04-11T10:08:20.017Z,13.20
2018-04-11T10:10:48.379Z,13.30
2018-04-11T10:13:15.987Z,13.30
2018-04-11T10:15:43.647Z,13.40
2018-04-11T10:18:12.084Z,13.50
2018-04-11T10:20:39.731Z,13.50
2018-04-11T10:23:07.449Z,13.70
2018-04-11T10:25:35.905Z,14.20
2018-04-11T10:28:03.515Z,14.20
2018-04-11T10:30:31.876Z,15.00
2018-04-11T10:33:00.259Z,15.40
2018-04-11T10:35:27.929Z,15.40
2018-04-11T10:37:55.540Z,15.50
2018-04-11T10:40:23.213Z,15.50
2018-04-11T10:42:51.162Z,15.50
2018-04-11T10:45:18.784Z,15.70
2018-04-11T10:47:46.410Z,16.00
2018-04-11T10:50:14.026Z,16.20
2018-04-11T10:52:41.652Z,16.50
2018-04-11T10:55:09.249Z,16.60
2018-04-11T10:57:36.848Z,16.40
2018-04-11T11:00:06.200Z,16.30
2018-04-11T11:02:33.862Z,16.60
2018-04-11T11:05:01.519Z,16.40
2018-04-11T11:07:29.900Z,16.90
2018-04-11T11:09:57.691Z,16.80
2018-04-11T11:12:26.603Z,16.90
2018-04-11T11:14:54.259Z,16.90
2018-04-11T11:17:21.910Z,16.90
2018-04-11T11:20:02.174Z,16.50
2018-04-11T11:22:29.865Z,16.50
2018-04-11T11:24:58.371Z,16.70
2018-04-11T11:27:27.205Z,16.80
2018-04-11T11:29:54.820Z,16.80
2018-04-11T11:32:23.206Z,16.60
2018-04-11T11:34:50.843Z,16.60
2018-04-11T11:37:18.469Z,16.70
2018-04-11T11:39:46.125Z,16.70
2018-04-11T11:42:13.781Z,17.00
2018-04-11T11:44:42.185Z,17.10
2018-04-11T11:47:09.789Z,17.10
2018-04-11T11:49:37.824Z,17.00
2018-04-11T11:52:05.489Z,17.20
2018-04-11T11:54:33.095Z,17.00
2018-04-11T11:57:00.701Z,17.00
2018-04-11T11:59:29.097Z,17.00
2018-04-11T12:01:57.453Z,17.10
2018-04-11T12:04:25.104Z,17.10
2018-04-11T12:06:52.695Z,17.40
2018-04-11T12:09:21.056Z,17.90
2018-04-11T12:11:48.660Z,17.90
2018-04-11T12:14:16.236Z,18.10
2018-04-11T12:16:43.832Z,18.10
2018-04-11T12:19:11.424Z,18.10
2018-04-11T12:21:39.106Z,17.90
2018-04-11T12:24:07.496Z,17.50
2018-04-11T12:26:35.893Z,17.30
2018-04-11T12:29:03.475Z,17.30
2018-04-11T12:31:31.070Z,17.20
2018-04-11T12:33:58.688Z,17.10
2018-04-11T12:36:26.268Z,16.90
2018-04-11T12:38:53.894Z,16.80
2018-04-11T12:41:21.496Z,16.70
2018-04-11T12:43:49.142Z,16.50
2018-04-11T12:46:17.654Z,16.40
2018-04-11T12:48:45.261Z,16.40
2018-04-11T12:51:12.866Z,16.40
2018-04-11T12:53:40.558Z,16.40
2018-04-11T12:56:08.137Z,16.50
2018-04-11T12:58:36.370Z,16.50
2018-04-11T13:01:04.770Z,16.70
2018-04-11T13:03:32.501Z,16.60
2018-04-11T13:06:00.879Z,17.00
2018-04-11T13:08:28.507Z,17.00
2018-04-11T13:10:56.119Z,17.20
2018-04-11T13:13:23.737Z,17.50
2018-04-11T13:15:51.341Z,17.80
2018-04-11T13:18:19.001Z,18.00
2018-04-11T13:20:46.579Z,18.20
2018-04-11T13:23:14.945Z,18.50
2018-04-11T13:25:42.587Z,18.50
2018-04-11T13:28:10.145Z,18.90
2018-04-11T13:30:37.818Z,18.90
2018-04-11T13:33:06.576Z,19.00
2018-04-11T13:35:34.290Z,19.20
2018-04-11T13:38:02.621Z,19.40
2018-04-11T13:40:30.470Z,19.50
2018-04-11T13:42:58.080Z,19.50
2018-04-11T13:45:25.701Z,19.50
2018-04-11T13:47:53.336Z,19.40
2018-04-11T13:50:21.005Z,19.40
2018-04-11T13:52:48.648Z,19.40
2018-04-11T13:55:16.298Z,19.40
2018-04-11T13:57:43.919Z,19.70
2018-04-11T14:00:11.496Z,19.90
2018-04-11T14:02:40.007Z,20.00
2018-04-11T14:05:07.594Z,20.00
2018-04-11T14:07:35.213Z,20.20
2018-04-11T14:10:02.810Z,20.20
2018-04-11T14:12:30.428Z,20.00
2018-04-11T14:14:58.088Z,19.60
2018-04-11T14:17:25.786Z,19.50
2018-04-11T14:19:53.484Z,19.40
2018-04-11T14:22:21.712Z,19.50
2018-04-11T14:24:49.376Z,19.50
2018-04-11T14:27:16.964Z,19.40
2018-04-11T14:29:44.579Z,19.40
2018-04-11T14:32:12.192Z,19.10
2018-04-11T14:34:39.813Z,19.10
2018-04-11T14:37:07.485Z,19.00
2018-04-11T14:39:35.072Z,19.00
2018-04-11T14:42:02.651Z,18.90
2018-04-11T14:44:32.155Z,18.60
2018-04-11T14:46:59.783Z,18.60
2018-04-11T14:49:27.359Z,18.40
2018-04-11T14:51:54.956Z,18.30
2018-04-11T14:54:22.548Z,18.20
2018-04-11T14:56:50.145Z,18.00
2018-04-11T14:59:17.721Z,17.80
2018-04-11T15:01:45.325Z,17.70
2018-04-11T15:04:13.678Z,17.60
2018-04-11T15:06:41.282Z,17.60
2018-04-11T15:09:09.870Z,17.50
2018-04-11T15:11:38.254Z,17.40
2018-04-11T15:14:06.625Z,17.30
2018-04-11T15:16:34.206Z,17.30
2018-04-11T15:19:01.797Z,17.20
2018-04-11T15:21:29.397Z,17.00
2018-04-11T15:23:57.027Z,17.00
2018-04-11T15:26:24.616Z,17.00
2018-04-11T15:28:52.217Z,16.90
2018-04-11T15:31:20.700Z,17.10
2018-04-11T15:33:48.357Z,17.00
2018-04-11T15:36:16.837Z,17.30
2018-04-11T15:38:44.511Z,17.40
2018-04-11T15:41:12.962Z,17.30
2018-04-11T15:43:40.577Z,17.30
2018-04-11T15:49:17.910Z,17.30
2018-04-11T15:51:46.261Z,17.30
2018-04-11T15:54:13.884Z,17.20
2018-04-11T15:56:41.474Z,17.30
2018-04-11T15:59:09.066Z,17.50
2018-04-11T16:01:36.750Z,17.80
2018-04-11T16:04:04.355Z,18.40
2018-04-11T16:06:32.263Z,18.60
2018-04-11T16:08:59.927Z,18.70
2018-04-11T16:11:27.560Z,18.60
2018-04-11T16:13:55.132Z,18.70
2018-04-11T16:16:23.535Z,18.40
2018-04-11T16:18:51.183Z,18.40
2018-04-11T16:21:18.787Z,18.10
2018-04-11T16:23:46.472Z,17.90
2018-04-11T16:26:14.091Z,17.70
2018-04-11T16:28:42.438Z,17.50
2018-04-11T16:31:10.046Z,17.40
2018-04-11T16:33:38.416Z,17.10
2018-04-11T16:36:06.028Z,17.00
2018-04-11T16:38:33.650Z,16.90
2018-04-11T16:41:01.992Z,16.70
2018-04-11T16:43:29.730Z,16.70
2018-04-11T16:45:57.353Z,16.60
2018-04-11T16:48:25.026Z,16.50
2018-04-11T16:50:52.610Z,16.50
2018-04-11T16:53:21.894Z,16.40
2018-04-11T16:55:49.500Z,16.40
2018-04-11T16:58:17.091Z,16.30
2018-04-11T17:00:44.670Z,16.30
2018-04-11T17:03:12.226Z,16.20
2018-04-11T17:05:39.811Z,16.10
2018-04-11T17:08:07.423Z,16.10
2018-04-11T17:10:35.026Z,16.00
2018-04-11T17:13:03.320Z,15.90
2018-04-11T17:15:30.918Z,15.90
2018-04-11T17:17:59.205Z,15.90
2018-04-11T17:20:40.135Z,15.80
2018-04-11T17:23:19.524Z,15.80
2018-04-11T17:25:58.870Z,15.80
2018-04-11T17:28:38.320Z,15.80
2018-04-11T17:31:26.769Z,15.70
2018-04-11T17:33:55.090Z,15.70
2018-04-11T17:36:22.711Z,15.60
2018-04-11T17:38:50.304Z,15.50
2018-04-11T17:41:17.904Z,15.40
2018-04-11T17:43:46.284Z,15.30
2018-04-11T17:46:13.880Z,15.30
2018-04-11T17:48:41.460Z,15.30
2018-04-11T17:51:09.083Z,15.30
2018-04-11T17:53:37.549Z,15.20
2018-04-11T17:56:05.897Z,15.20
2018-04-11T17:58:33.497Z,15.20
2018-04-11T18:01:01.847Z,15.00
2018-04-11T18:03:29.485Z,14.90
2018-04-11T18:05:57.080Z,14.90
2018-04-11T18:08:24.746Z,14.90
2018-04-11T18:10:52.351Z,14.80
2018-04-11T18:13:20.692Z,14.70
2018-04-11T18:15:48.345Z,14.70
2018-04-11T18:18:15.965Z,14.60
2018-04-11T18:20:44.302Z,14.50
2018-04-11T18:23:12.584Z,14.50
2018-04-11T18:25:43.739Z,14.40
2018-04-11T18:28:12.307Z,14.30
2018-04-11T18:30:40.149Z,14.30
2018-04-11T18:33:07.937Z,14.20
2018-04-11T18:35:38.183Z,14.10
2018-04-11T18:38:06.776Z,14.10
2018-04-11T18:40:34.475Z,14.10
2018-04-11T18:43:02.914Z,14.00
2018-04-11T18:45:31.210Z,14.00
2018-04-11T18:48:01.292Z,14.00
2018-04-11T18:50:28.922Z,14.00
2018-04-11T18:52:56.816Z,14.10
2018-04-11T18:55:24.524Z,14.10
2018-04-11T18:57:52.150Z,14.10
2018-04-11T19:00:19.729Z,14.10
2018-04-11T19:02:47.384Z,14.10
2018-04-11T19:05:14.999Z,14.10
2018-04-11T19:07:42.819Z,14.10
2018-04-11T19:10:10.529Z,14.10
2018-04-11T19:12:38.116Z,14.10
2018-04-11T19:15:06.545Z,14.10
2018-04-11T19:17:34.169Z,14.10
2018-04-11T19:20:01.760Z,14.10
2018-04-11T19:22:30.119Z,14.10
2018-04-11T19:24:57.693Z,14.10
2018-04-11T19:27:25.326Z,14.10
2018-04-11T19:29:52.894Z,14.10
2018-04-11T19:32:20.496Z,14.20
2018-04-11T19:34:48.077Z,14.20
2018-04-11T19:37:15.659Z,14.10
2018-04-11T19:39:43.250Z,14.20
2018-04-11T19:42:10.823Z,14.10
2018-04-11T19:44:38.421Z,14.10
2018-04-11T19:47:06.779Z,14.20
2018-04-11T19:49:34.393Z,14.20
2018-04-11T19:52:02.061Z,14.20
2018-04-11T19:54:30.348Z,14.20
2018-04-11T19:56:57.972Z,14.20
2018-04-11T19:59:26.377Z,14.20
2018-04-11T20:01:53.969Z,14.20
2018-04-11T20:04:21.616Z,14.20
2018-04-11T20:06:49.210Z,14.20
2018-04-11T20:09:16.813Z,14.20
2018-04-11T20:11:44.454Z,14.10
2018-04-11T20:14:12.036Z,14.10
2018-04-11T20:16:39.660Z,14.00
2018-04-11T20:19:07.262Z,14.00
2018-04-11T20:21:34.832Z,13.90
2018-04-11T20:24:02.471Z,13.90
2018-04-11T20:26:30.116Z,13.90
2018-04-11T20:28:57.699Z,13.80
2018-04-11T20:31:25.313Z,13.70
2018-04-11T20:33:53.721Z,13.60
2018-04-11T20:36:21.316Z,13.60
2018-04-11T20:38:48.903Z,13.50
2018-04-11T20:41:16.513Z,13.50
2018-04-11T20:43:44.123Z,13.50
2018-04-11T20:46:12.177Z,13.40
2018-04-11T20:48:40.079Z,13.40
2018-04-11T20:51:07.779Z,13.40
2018-04-11T20:53:35.419Z,13.30
2018-04-11T20:56:03.906Z,13.30
2018-04-11T20:58:32.392Z,13.20
2018-04-11T21:01:00.028Z,13.20
2018-04-11T21:03:27.640Z,13.20
2018-04-11T21:05:56.303Z,13.10
2018-04-11T21:08:24.042Z,13.10
2018-04-11T21:10:52.910Z,13.00
2018-04-11T21:13:21.324Z,13.00
2018-04-11T21:15:48.899Z,12.90
2018-04-11T21:18:16.464Z,12.90
2018-04-11T21:20:44.933Z,12.80
2018-04-11T21:23:12.559Z,12.80
2018-04-11T21:25:40.193Z,12.70
2018-04-11T21:28:07.771Z,12.70
2018-04-11T21:30:35.355Z,12.60
2018-04-11T21:33:03.749Z,12.50
2018-04-11T21:35:32.095Z,12.50
2018-04-11T21:37:59.761Z,12.50
2018-04-11T21:40:27.337Z,12.50
2018-04-11T21:42:54.943Z,12.40
2018-04-11T21:45:22.577Z,12.40
2018-04-11T21:47:51.696Z,12.40
2018-04-11T21:50:20.069Z,12.30
2018-04-11T21:52:47.635Z,12.30
2018-04-11T21:55:16.013Z,12.30
2018-04-11T21:57:43.620Z,12.30
2018-04-11T22:00:11.201Z,12.30
2018-04-11T22:02:38.795Z,12.20
2018-04-11T22:05:06.794Z,12.20
2018-04-11T22:07:35.637Z,12.20
2018-04-11T22:10:03.244Z,12.20
2018-04-11T22:12:30.909Z,12.10
2018-04-11T22:14:59.267Z,12.10
2018-04-11T22:17:26.835Z,12.10
2018-04-11T22:19:54.468Z,12.10
2018-04-11T22:22:22.143Z,12.10
2018-04-11T22:24:50.462Z,12.10
2018-04-11T22:27:18.893Z,12.10
2018-04-11T22:29:46.485Z,12.10
2018-04-11T22:32:14.059Z,12.10
2018-04-11T22:34:41.635Z,12.10
2018-04-11T22:37:09.226Z,12.10
2018-04-11T22:39:36.807Z,12.10
2018-04-11T22:42:04.391Z,12.00
2018-04-11T22:44:31.969Z,12.00
2018-04-11T22:46:59.549Z,12.00
2018-04-11T22:49:27.137Z,12.00
2018-04-11T22:51:55.521Z,11.90
2018-04-11T22:54:23.907Z,11.90
2018-04-11T22:56:51.479Z,11.80
2018-04-11T22:59:19.140Z,11.90
2018-04-11T23:01:47.616Z,11.90
2018-04-11T23:04:15.188Z,11.90
2018-04-11T23:06:42.780Z,11.90
2018-04-11T23:09:10.380Z,11.90
2018-04-11T23:11:38.013Z,11.80
2018-04-11T23:14:05.636Z,11.80
2018-04-11T23:16:33.301Z,11.80
2018-04-11T23:19:01.546Z,11.80
2018-04-11T23:21:29.177Z,11.80
2018-04-11T23:23:57.717Z,11.70
2018-04-11T23:26:25.313Z,11.70
2018-04-11T23:28:52.948Z,11.70
2018-04-11T23:31:20.559Z,11.70
2018-04-11T23:33:48.907Z,11.70
2018-04-11T23:36:16.625Z,11.70
2018-04-11T23:38:44.223Z,11.70
2018-04-11T23:41:11.840Z,11.60
2018-04-11T23:43:40.197Z,11.60
2018-04-11T23:46:07.802Z,11.50
2018-04-11T23:48:35.414Z,11.50
2018-04-11T23:51:03.803Z,11.50
2018-04-11T23:53:31.401Z,11.50
2018-04-11T23:55:59.013Z,11.50
2018-04-11T23:58:26.633Z,11.50
